PWSweather.com
Personal Weather Stations
Station Observations

OlomoucCZ

Lat: 49.5936202181, Lon: 17.2276005149

Elevation: 752

Station Type: Davis Vantage Pro 2 Activ

http://infopocasi-olomouc.cz

Latest ConditionsUpdated 4:30:01 PM GMT+01:01 Friday, Mar 22, 2019
Currently Today's Max Today's Min Today's Average
Temperature 57.9°F14.4°C 61.3°F16.3°C 34.6°F1.4°C 46.8°F8.2°C
Dew Point 48.9°F9.4°C 49.2°F9.6°C 33.1°F0.6°C 40.2°F4.6°C
Winds 8.1 mph SE13.0 kmh SE 10.4 mph -16.7 kmh - - 2.9 mph 4.7 kmh
Wind Gusts 12.7 mph20.4 kmh 13.8 mph22.2 kmh - -
Humidity 72% 94% 60% 79%
Pressure 30.39 in1029.1 mb 30.49 in1032.5 mb 30.39 in1029.1 mb -
Hour Temp Dew Point Humidity Winds Wind Gusts Pressure Precip Precip Rate Daily Precip Total
04:30 PM 57.9°F14.4°C 48.9°F9.4°C 72% 8.1 mph SE13.0 kmh SE 12.7 mph20.4 kmh 30.39 in1029.1 mb - 0.00 in0.0 mm 0.00 in0.0 mm
04:00 PM 58.6°F14.8°C 48.8°F9.3°C 70% 8.1 mph E13.0 kmh E 8.1 mph13.0 kmh 30.39 in1029.1 mb - 0.00 in0.0 mm 0.00 in0.0 mm
03:30 PM 59.6°F15.3°C 49.0°F9.4°C 68% 10.4 mph SE16.7 kmh SE 11.5 mph18.5 kmh 30.40 in1029.5 mb - 0.00 in0.0 mm 0.00 in0.0 mm
03:00 PM 61.1°F16.2°C 49.2°F9.6°C 65% 9.2 mph E14.8 kmh E 13.8 mph22.2 kmh 30.40 in1029.5 mb - 0.00 in0.0 mm 0.00 in0.0 mm
02:30 PM 61.3°F16.3°C 47.3°F8.5°C 60% 1.2 mph N1.9 kmh N 3.5 mph5.6 kmh 30.42 in1030.1 mb - 0.00 in0.0 mm 0.00 in0.0 mm
02:00 PM 61.1°F16.2°C 47.6°F8.7°C 61% 3.5 mph E5.6 kmh E 6.9 mph11.1 kmh 30.43 in1030.5 mb - 0.00 in0.0 mm 0.00 in0.0 mm
01:30 PM 60.4°F15.8°C 46.8°F8.2°C 61% 1.2 mph ESE1.9 kmh ESE 3.5 mph5.6 kmh 30.43 in1030.5 mb - 0.00 in0.0 mm 0.00 in0.0 mm
01:00 PM 60.4°F15.8°C 47.3°F8.5°C 62% 2.3 mph SE3.7 kmh SE 3.5 mph5.6 kmh 30.44 in1030.8 mb - 0.00 in0.0 mm 0.00 in0.0 mm
12:30 PM 60.2°F15.7°C 47.2°F8.4°C 62% 4.6 mph N7.4 kmh N 4.6 mph7.4 kmh 30.46 in1031.5 mb - 0.00 in0.0 mm 0.00 in0.0 mm
12:00 PM 59.7°F15.4°C 47.1°F8.4°C 63% 9.2 mph E14.8 kmh E 11.5 mph18.5 kmh 30.46 in1031.5 mb - 0.00 in0.0 mm 0.00 in0.0 mm
11:30 AM 59.3°F15.2°C 45.9°F7.7°C 61% 2.3 mph E3.7 kmh E 5.8 mph9.3 kmh 30.46 in1031.5 mb - 0.00 in0.0 mm 0.00 in0.0 mm
11:00 AM 57.7°F14.3°C 45.2°F7.3°C 63% 2.3 mph NNE3.7 kmh NNE 2.3 mph3.7 kmh 30.47 in1031.8 mb - 0.00 in0.0 mm 0.00 in0.0 mm
10:30 AM 55.0°F12.8°C 44.3°F6.8°C 67% 2.3 mph ENE3.7 kmh ENE 2.3 mph3.7 kmh 30.48 in1032.2 mb - 0.00 in0.0 mm 0.00 in0.0 mm
10:00 AM 51.8°F11.0°C 42.7°F5.9°C 71% 2.3 mph W3.7 kmh W 3.5 mph5.6 kmh 30.48 in1032.2 mb - 0.00 in0.0 mm 0.00 in0.0 mm
09:30 AM 49.7°F9.8°C 41.8°F5.4°C 74% 4.6 mph NW7.4 kmh NW 4.6 mph7.4 kmh 30.48 in1032.2 mb - 0.00 in0.0 mm 0.00 in0.0 mm
09:00 AM 46.8°F8.2°C 40.6°F4.8°C 79% 3.5 mph NW5.6 kmh NW 3.5 mph5.6 kmh 30.48 in1032.2 mb - 0.00 in0.0 mm 0.00 in0.0 mm
08:30 AM 43.9°F6.6°C 39.4°F4.1°C 84% 2.3 mph NNW3.7 kmh NNW 3.5 mph5.6 kmh 30.49 in1032.5 mb - 0.00 in0.0 mm 0.00 in0.0 mm
08:00 AM 41.6°F5.3°C 38.3°F3.5°C 88% 3.5 mph NW5.6 kmh NW 3.5 mph5.6 kmh 30.49 in1032.5 mb - 0.00 in0.0 mm 0.00 in0.0 mm
07:30 AM 40.7°F4.8°C 38.2°F3.4°C 91% 2.3 mph NW3.7 kmh NW 3.5 mph5.6 kmh 30.48 in1032.2 mb - 0.00 in0.0 mm 0.00 in0.0 mm
07:00 AM 37.1°F2.8°C 35.5°F1.9°C 94% 1.2 mph NW1.9 kmh NW 1.2 mph1.9 kmh 30.49 in1032.5 mb - 0.00 in0.0 mm 0.00 in0.0 mm
06:30 AM 35.3°F1.8°C 33.8°F1.0°C 94% 1.2 mph WNW1.9 kmh WNW 2.3 mph3.7 kmh 30.49 in1032.5 mb - 0.00 in0.0 mm 0.00 in0.0 mm
06:00 AM 34.8°F1.6°C 33.2°F0.7°C 94% 1.2 mph WNW1.9 kmh WNW 1.2 mph1.9 kmh 30.48 in1032.2 mb - 0.00 in0.0 mm 0.00 in0.0 mm
05:30 AM 34.6°F1.4°C 33.1°F0.6°C 94% 1.2 mph WNW1.9 kmh WNW 1.2 mph1.9 kmh 30.48 in1032.2 mb - 0.00 in0.0 mm 0.00 in0.0 mm
05:00 AM 34.8°F1.6°C 33.2°F0.7°C 94% 2.3 mph WNW3.7 kmh WNW 3.5 mph5.6 kmh 30.47 in1031.8 mb - 0.00 in0.0 mm 0.00 in0.0 mm
04:30 AM 35.0°F1.7°C 33.2°F0.7°C 93% Calm Calm -- 30.47 in1031.8 mb - 0.00 in0.0 mm 0.00 in0.0 mm
04:00 AM 35.4°F1.9°C 33.6°F0.9°C 93% 1.2 mph WNW1.9 kmh WNW 1.2 mph1.9 kmh 30.47 in1031.8 mb - 0.00 in0.0 mm 0.00 in0.0 mm
03:30 AM 36.0°F2.2°C 33.9°F1.1°C 92% Calm Calm -- 30.47 in1031.8 mb - 0.00 in0.0 mm 0.00 in0.0 mm
03:00 AM 36.9°F2.7°C 34.8°F1.6°C 92% Calm Calm 1.2 mph1.9 kmh 30.48 in1032.2 mb - 0.00 in0.0 mm 0.00 in0.0 mm
02:30 AM 36.8°F2.7°C 34.5°F1.4°C 91% 1.2 mph W1.9 kmh W 2.3 mph3.7 kmh 30.48 in1032.2 mb - 0.00 in0.0 mm 0.00 in0.0 mm
02:00 AM 36.5°F2.5°C 34.1°F1.2°C 91% 3.5 mph W5.6 kmh W 3.5 mph5.6 kmh 30.48 in1032.2 mb - 0.00 in0.0 mm 0.00 in0.0 mm
01:30 AM 36.7°F2.6°C 34.0°F1.1°C 90% Calm Calm 1.2 mph1.9 kmh 30.48 in1032.2 mb - 0.00 in0.0 mm 0.00 in0.0 mm
01:00 AM 37.4°F3.0°C 34.2°F1.2°C 88% 1.2 mph N1.9 kmh N 1.2 mph1.9 kmh 30.49 in1032.5 mb - 0.00 in0.0 mm 0.00 in0.0 mm
12:30 AM 37.9°F3.3°C 34.4°F1.3°C 87% 2.3 mph N3.7 kmh N 3.5 mph5.6 kmh 30.49 in1032.5 mb - 0.00 in0.0 mm 0.00 in0.0 mm
12:00 AM 38.3°F3.5°C 34.5°F1.4°C 86% Calm Calm 1.2 mph1.9 kmh 30.48 in1032.2 mb - 0.00 in0.0 mm 0.00 in0.0 mm